sensor_id;sensor_type;location;lat;lon;timestamp;P1;durP1;ratioP1;P2;durP2;ratioP2
69795;SDS011;57073;45.650;9.612;2023-07-20T00:01:21;11.33;;;6.73;;
69795;SDS011;57073;45.650;9.612;2023-07-20T00:06:21;14.37;;;7.17;;
69795;SDS011;57073;45.650;9.612;2023-07-20T00:11:25;12.38;;;6.57;;
69795;SDS011;57073;45.650;9.612;2023-07-20T00:16:26;10.55;;;5.50;;
69795;SDS011;57073;45.650;9.612;2023-07-20T00:21:26;11.50;;;5.90;;
69795;SDS011;57073;45.650;9.612;2023-07-20T00:26:27;14.03;;;6.43;;
69795;SDS011;57073;45.650;9.612;2023-07-20T00:31:27;17.03;;;7.23;;
69795;SDS011;57073;45.650;9.612;2023-07-20T00:36:29;12.97;;;6.60;;
69795;SDS011;57073;45.650;9.612;2023-07-20T00:41:29;11.20;;;6.80;;
69795;SDS011;57073;45.650;9.612;2023-07-20T00:46:29;12.93;;;7.50;;
69795;SDS011;57073;45.650;9.612;2023-07-20T00:51:32;12.68;;;7.15;;
69795;SDS011;57073;45.650;9.612;2023-07-20T00:56:33;11.80;;;6.70;;
69795;SDS011;57073;45.650;9.612;2023-07-20T01:01:33;12.53;;;6.97;;
69795;SDS011;57073;45.650;9.612;2023-07-20T01:06:48;12.80;;;7.03;;
69795;SDS011;57073;45.650;9.612;2023-07-20T01:17:30;14.38;;;7.20;;
69795;SDS011;57073;45.650;9.612;2023-07-20T01:33:19;12.13;;;6.40;;
69795;SDS011;57073;45.650;9.612;2023-07-20T01:38:20;12.17;;;6.80;;
69795;SDS011;57073;45.650;9.612;2023-07-20T01:43:21;15.02;;;7.25;;
69795;SDS011;57073;45.650;9.612;2023-07-20T01:48:22;10.67;;;6.40;;
69795;SDS011;57073;45.650;9.612;2023-07-20T01:53:22;11.70;;;5.80;;
69795;SDS011;57073;45.650;9.612;2023-07-20T01:58:22;12.20;;;7.13;;
69795;SDS011;57073;45.650;9.612;2023-07-20T02:03:23;17.57;;;7.00;;
69795;SDS011;57073;45.650;9.612;2023-07-20T02:08:25;16.30;;;7.18;;
69795;SDS011;57073;45.650;9.612;2023-07-20T02:13:26;14.77;;;7.13;;
69795;SDS011;57073;45.650;9.612;2023-07-20T02:18:26;11.93;;;7.10;;
69795;SDS011;57073;45.650;9.612;2023-07-20T02:23:26;12.27;;;7.00;;
69795;SDS011;57073;45.650;9.612;2023-07-20T02:28:27;11.40;;;7.13;;
69795;SDS011;57073;45.650;9.612;2023-07-20T02:33:27;10.57;;;6.77;;
69795;SDS011;57073;45.650;9.612;2023-07-20T02:38:27;12.50;;;6.27;;
69795;SDS011;57073;45.650;9.612;2023-07-20T02:43:28;11.93;;;6.60;;
69795;SDS011;57073;45.650;9.612;2023-07-20T02:48:28;13.50;;;7.67;;
69795;SDS011;57073;45.650;9.612;2023-07-20T02:53:29;12.07;;;7.20;;
69795;SDS011;57073;45.650;9.612;2023-07-20T02:58:29;15.97;;;7.73;;
69795;SDS011;57073;45.650;9.612;2023-07-20T03:03:29;12.20;;;8.13;;
69795;SDS011;57073;45.650;9.612;2023-07-20T03:08:30;15.77;;;8.70;;
69795;SDS011;57073;45.650;9.612;2023-07-20T03:13:30;14.30;;;8.50;;
69795;SDS011;57073;45.650;9.612;2023-07-20T03:18:31;12.40;;;7.70;;
69795;SDS011;57073;45.650;9.612;2023-07-20T03:23:31;13.50;;;8.40;;
69795;SDS011;57073;45.650;9.612;2023-07-20T03:28:32;16.42;;;9.30;;
69795;SDS011;57073;45.650;9.612;2023-07-20T03:33:32;19.57;;;11.30;;
69795;SDS011;57073;45.650;9.612;2023-07-20T03:38:34;13.73;;;9.80;;
69795;SDS011;57073;45.650;9.612;2023-07-20T03:43:35;16.07;;;10.00;;
69795;SDS011;57073;45.650;9.612;2023-07-20T03:48:35;17.10;;;10.77;;
69795;SDS011;57073;45.650;9.612;2023-07-20T03:53:36;23.50;;;11.85;;
69795;SDS011;57073;45.650;9.612;2023-07-20T03:58:36;16.40;;;12.20;;
69795;SDS011;57073;45.650;9.612;2023-07-20T04:03:36;20.10;;;13.23;;
69795;SDS011;57073;45.650;9.612;2023-07-20T04:08:37;19.03;;;12.97;;
69795;SDS011;57073;45.650;9.612;2023-07-20T04:13:37;18.77;;;13.13;;
69795;SDS011;57073;45.650;9.612;2023-07-20T04:18:38;19.73;;;13.23;;
69795;SDS011;57073;45.650;9.612;2023-07-20T04:23:38;18.83;;;12.37;;
69795;SDS011;57073;45.650;9.612;2023-07-20T04:28:38;19.57;;;11.93;;
69795;SDS011;57073;45.650;9.612;2023-07-20T04:33:40;15.73;;;10.07;;
69795;SDS011;57073;45.650;9.612;2023-07-20T04:38:40;15.10;;;9.37;;
69795;SDS011;57073;45.650;9.612;2023-07-20T04:43:41;16.30;;;9.73;;
69795;SDS011;57073;45.650;9.612;2023-07-20T04:48:43;13.95;;;10.20;;
69795;SDS011;57073;45.650;9.612;2023-07-20T04:53:43;16.77;;;10.97;;
69795;SDS011;57073;45.650;9.612;2023-07-20T04:58:43;14.03;;;10.00;;
69795;SDS011;57073;45.650;9.612;2023-07-20T05:03:45;13.25;;;9.18;;
69795;SDS011;57073;45.650;9.612;2023-07-20T05:08:45;13.77;;;8.50;;
69795;SDS011;57073;45.650;9.612;2023-07-20T05:13:46;13.03;;;9.00;;
69795;SDS011;57073;45.650;9.612;2023-07-20T05:18:46;14.50;;;7.80;;
69795;SDS011;57073;45.650;9.612;2023-07-20T05:23:46;14.47;;;8.30;;
69795;SDS011;57073;45.650;9.612;2023-07-20T05:28:47;15.27;;;9.00;;
69795;SDS011;57073;45.650;9.612;2023-07-20T05:33:47;17.17;;;9.70;;
69795;SDS011;57073;45.650;9.612;2023-07-20T05:38:47;14.43;;;9.83;;
69795;SDS011;57073;45.650;9.612;2023-07-20T05:43:49;15.50;;;9.27;;
69795;SDS011;57073;45.650;9.612;2023-07-20T05:48:49;16.93;;;9.13;;
69795;SDS011;57073;45.650;9.612;2023-07-20T05:53:50;16.23;;;9.30;;
69795;SDS011;57073;45.650;9.612;2023-07-20T05:58:50;16.17;;;9.70;;
69795;SDS011;57073;45.650;9.612;2023-07-20T06:03:50;14.50;;;9.07;;
69795;SDS011;57073;45.650;9.612;2023-07-20T06:08:51;15.77;;;8.70;;
69795;SDS011;57073;45.650;9.612;2023-07-20T06:13:52;14.30;;;9.10;;
69795;SDS011;57073;45.650;9.612;2023-07-20T06:18:52;12.07;;;8.30;;
69795;SDS011;57073;45.650;9.612;2023-07-20T06:23:52;12.97;;;7.90;;
69795;SDS011;57073;45.650;9.612;2023-07-20T06:28:53;14.63;;;9.33;;
69795;SDS011;57073;45.650;9.612;2023-07-20T06:33:53;13.77;;;9.60;;
69795;SDS011;57073;45.650;9.612;2023-07-20T06:38:54;18.53;;;10.97;;
69795;SDS011;57073;45.650;9.612;2023-07-20T06:43:55;14.30;;;8.77;;
69795;SDS011;57073;45.650;9.612;2023-07-20T06:48:58;22.67;;;11.18;;
69795;SDS011;57073;45.650;9.612;2023-07-20T06:53:58;14.23;;;8.73;;
69795;SDS011;57073;45.650;9.612;2023-07-20T06:58:59;13.13;;;8.60;;
69795;SDS011;57073;45.650;9.612;2023-07-20T07:03:59;11.50;;;8.50;;
69795;SDS011;57073;45.650;9.612;2023-07-20T07:08:59;12.60;;;8.77;;
69795;SDS011;57073;45.650;9.612;2023-07-20T07:14:00;14.80;;;8.67;;
69795;SDS011;57073;45.650;9.612;2023-07-20T07:19:00;14.60;;;8.93;;
69795;SDS011;57073;45.650;9.612;2023-07-20T07:24:00;16.87;;;8.13;;
69795;SDS011;57073;45.650;9.612;2023-07-20T07:29:01;12.80;;;8.10;;
69795;SDS011;57073;45.650;9.612;2023-07-20T07:34:02;14.37;;;7.97;;
69795;SDS011;57073;45.650;9.612;2023-07-20T07:39:02;13.95;;;7.97;;
69795;SDS011;57073;45.650;9.612;2023-07-20T07:44:03;15.52;;;8.90;;
69795;SDS011;57073;45.650;9.612;2023-07-20T07:49:04;14.10;;;9.00;;
69795;SDS011;57073;45.650;9.612;2023-07-20T07:54:04;13.40;;;8.03;;
69795;SDS011;57073;45.650;9.612;2023-07-20T07:59:05;12.67;;;7.60;;
69795;SDS011;57073;45.650;9.612;2023-07-20T08:04:05;12.93;;;7.23;;
69795;SDS011;57073;45.650;9.612;2023-07-20T08:09:05;11.33;;;7.40;;
69795;SDS011;57073;45.650;9.612;2023-07-20T08:14:06;13.40;;;8.33;;
69795;SDS011;57073;45.650;9.612;2023-07-20T08:19:06;14.93;;;7.97;;
69795;SDS011;57073;45.650;9.612;2023-07-20T08:24:07;12.57;;;7.17;;
69795;SDS011;57073;45.650;9.612;2023-07-20T08:29:07;15.70;;;8.30;;
69795;SDS011;57073;45.650;9.612;2023-07-20T08:34:07;10.03;;;6.53;;
69795;SDS011;57073;45.650;9.612;2023-07-20T08:39:08;10.47;;;6.10;;
69795;SDS011;57073;45.650;9.612;2023-07-20T08:44:08;10.87;;;5.87;;
69795;SDS011;57073;45.650;9.612;2023-07-20T08:49:10;10.65;;;6.88;;
69795;SDS011;57073;45.650;9.612;2023-07-20T08:54:11;11.60;;;6.50;;
69795;SDS011;57073;45.650;9.612;2023-07-20T08:59:14;11.38;;;7.15;;
69795;SDS011;57073;45.650;9.612;2023-07-20T09:04:17;12.40;;;7.38;;
69795;SDS011;57073;45.650;9.612;2023-07-20T09:09:17;15.63;;;8.60;;
69795;SDS011;57073;45.650;9.612;2023-07-20T09:14:17;14.03;;;9.23;;
69795;SDS011;57073;45.650;9.612;2023-07-20T09:19:18;12.50;;;8.00;;
69795;SDS011;57073;45.650;9.612;2023-07-20T09:24:19;13.53;;;8.33;;
69795;SDS011;57073;45.650;9.612;2023-07-20T09:29:20;16.58;;;8.98;;
69795;SDS011;57073;45.650;9.612;2023-07-20T09:34:20;15.57;;;9.70;;
69795;SDS011;57073;45.650;9.612;2023-07-20T09:39:21;14.40;;;8.90;;
69795;SDS011;57073;45.650;9.612;2023-07-20T09:44:21;16.87;;;9.10;;
69795;SDS011;57073;45.650;9.612;2023-07-20T09:49:22;15.52;;;8.85;;
69795;SDS011;57073;45.650;9.612;2023-07-20T09:54:22;16.53;;;9.40;;
69795;SDS011;57073;45.650;9.612;2023-07-20T09:59:24;12.30;;;8.43;;
69795;SDS011;57073;45.650;9.612;2023-07-20T10:04:24;14.33;;;8.33;;
69795;SDS011;57073;45.650;9.612;2023-07-20T10:09:26;15.50;;;9.90;;
69795;SDS011;57073;45.650;9.612;2023-07-20T10:14:27;14.27;;;9.88;;
69795;SDS011;57073;45.650;9.612;2023-07-20T10:19:34;17.87;;;10.63;;
69795;SDS011;57073;45.650;9.612;2023-07-20T10:24:44;17.63;;;10.13;;
69795;SDS011;57073;45.650;9.612;2023-07-20T10:29:45;18.95;;;10.45;;
69795;SDS011;57073;45.650;9.612;2023-07-20T10:34:51;17.13;;;11.30;;
69795;SDS011;57073;45.650;9.612;2023-07-20T10:39:55;24.70;;;11.07;;
69795;SDS011;57073;45.650;9.612;2023-07-20T10:44:56;19.20;;;11.50;;
69795;SDS011;57073;45.650;9.612;2023-07-20T10:49:57;15.77;;;10.53;;
69795;SDS011;57073;45.650;9.612;2023-07-20T10:55:09;17.37;;;10.37;;
69795;SDS011;57073;45.650;9.612;2023-07-20T11:00:12;14.00;;;8.80;;
69795;SDS011;57073;45.650;9.612;2023-07-20T11:10:40;16.47;;;9.20;;
69795;SDS011;57073;45.650;9.612;2023-07-20T11:15:47;11.23;;;8.97;;
69795;SDS011;57073;45.650;9.612;2023-07-20T11:21:01;15.17;;;9.77;;
69795;SDS011;57073;45.650;9.612;2023-07-20T11:26:02;16.05;;;9.68;;
69795;SDS011;57073;45.650;9.612;2023-07-20T11:31:03;16.50;;;10.45;;
69795;SDS011;57073;45.650;9.612;2023-07-20T11:36:04;13.60;;;9.90;;
69795;SDS011;57073;45.650;9.612;2023-07-20T11:41:06;20.00;;;9.70;;
69795;SDS011;57073;45.650;9.612;2023-07-20T11:46:06;13.80;;;8.33;;
69795;SDS011;57073;45.650;9.612;2023-07-20T11:51:12;13.88;;;9.05;;
69795;SDS011;57073;45.650;9.612;2023-07-20T11:56:13;12.43;;;8.50;;
69795;SDS011;57073;45.650;9.612;2023-07-20T12:01:14;15.93;;;8.80;;
69795;SDS011;57073;45.650;9.612;2023-07-20T12:06:15;12.63;;;7.45;;
69795;SDS011;57073;45.650;9.612;2023-07-20T12:11:29;14.20;;;8.53;;
69795;SDS011;57073;45.650;9.612;2023-07-20T12:16:37;16.05;;;8.57;;
69795;SDS011;57073;45.650;9.612;2023-07-20T12:21:38;12.53;;;8.30;;
69795;SDS011;57073;45.650;9.612;2023-07-20T12:26:41;10.27;;;8.20;;
69795;SDS011;57073;45.650;9.612;2023-07-20T12:31:41;11.87;;;7.93;;
69795;SDS011;57073;45.650;9.612;2023-07-20T12:36:41;11.43;;;7.40;;
69795;SDS011;57073;45.650;9.612;2023-07-20T12:41:42;11.03;;;8.23;;
69795;SDS011;57073;45.650;9.612;2023-07-20T12:46:42;11.40;;;7.53;;
69795;SDS011;57073;45.650;9.612;2023-07-20T12:51:43;13.57;;;7.47;;
69795;SDS011;57073;45.650;9.612;2023-07-20T12:56:43;10.30;;;7.43;;
69795;SDS011;57073;45.650;9.612;2023-07-20T13:01:44;13.30;;;7.97;;
69795;SDS011;57073;45.650;9.612;2023-07-20T13:06:44;14.82;;;7.97;;
69795;SDS011;57073;45.650;9.612;2023-07-20T13:11:45;15.70;;;8.37;;
69795;SDS011;57073;45.650;9.612;2023-07-20T13:16:46;12.88;;;7.32;;
69795;SDS011;57073;45.650;9.612;2023-07-20T13:21:46;13.50;;;7.70;;
69795;SDS011;57073;45.650;9.612;2023-07-20T13:26:46;19.03;;;7.63;;
69795;SDS011;57073;45.650;9.612;2023-07-20T13:31:47;15.67;;;7.20;;
69795;SDS011;57073;45.650;9.612;2023-07-20T13:36:47;12.97;;;7.57;;
69795;SDS011;57073;45.650;9.612;2023-07-20T13:41:47;12.80;;;7.17;;
69795;SDS011;57073;45.650;9.612;2023-07-20T13:46:48;11.60;;;7.07;;
69795;SDS011;57073;45.650;9.612;2023-07-20T13:51:49;10.40;;;6.60;;
69795;SDS011;57073;45.650;9.612;2023-07-20T13:56:50;10.93;;;6.40;;
69795;SDS011;57073;45.650;9.612;2023-07-20T14:01:51;14.10;;;6.83;;
69795;SDS011;57073;45.650;9.612;2023-07-20T14:06:51;11.67;;;6.50;;
69795;SDS011;57073;45.650;9.612;2023-07-20T14:11:52;9.20;;;6.40;;
69795;SDS011;57073;45.650;9.612;2023-07-20T14:16:52;12.57;;;6.70;;
69795;SDS011;57073;45.650;9.612;2023-07-20T14:21:52;12.73;;;6.30;;
69795;SDS011;57073;45.650;9.612;2023-07-20T14:26:53;12.33;;;6.70;;
69795;SDS011;57073;45.650;9.612;2023-07-20T14:31:54;9.40;;;6.47;;
69795;SDS011;57073;45.650;9.612;2023-07-20T14:36:54;10.93;;;5.83;;
69795;SDS011;57073;45.650;9.612;2023-07-20T14:41:58;12.80;;;6.00;;
69795;SDS011;57073;45.650;9.612;2023-07-20T14:46:58;10.98;;;6.07;;
69795;SDS011;57073;45.650;9.612;2023-07-20T14:51:59;9.97;;;6.33;;
69795;SDS011;57073;45.650;9.612;2023-07-20T14:56:59;12.10;;;6.00;;
69795;SDS011;57073;45.650;9.612;2023-07-20T15:02:00;9.43;;;6.13;;
69795;SDS011;57073;45.650;9.612;2023-07-20T15:07:00;11.03;;;6.30;;
69795;SDS011;57073;45.650;9.612;2023-07-20T15:12:01;9.63;;;5.73;;
69795;SDS011;57073;45.650;9.612;2023-07-20T15:17:01;13.10;;;6.40;;
69795;SDS011;57073;45.650;9.612;2023-07-20T15:22:02;10.77;;;6.40;;
69795;SDS011;57073;45.650;9.612;2023-07-20T15:27:03;10.18;;;6.70;;
69795;SDS011;57073;45.650;9.612;2023-07-20T15:32:04;11.47;;;6.47;;
69795;SDS011;57073;45.650;9.612;2023-07-20T15:37:06;9.68;;;6.35;;
69795;SDS011;57073;45.650;9.612;2023-07-20T15:42:06;10.07;;;5.90;;
69795;SDS011;57073;45.650;9.612;2023-07-20T15:47:07;10.43;;;6.32;;
69795;SDS011;57073;45.650;9.612;2023-07-20T15:52:08;10.57;;;7.10;;
69795;SDS011;57073;45.650;9.612;2023-07-20T15:57:08;8.90;;;6.20;;
69795;SDS011;57073;45.650;9.612;2023-07-20T16:02:09;10.73;;;6.30;;
69795;SDS011;57073;45.650;9.612;2023-07-20T16:07:09;11.63;;;6.50;;
69795;SDS011;57073;45.650;9.612;2023-07-20T16:12:10;11.50;;;6.60;;
69795;SDS011;57073;45.650;9.612;2023-07-20T16:17:12;12.88;;;6.95;;
69795;SDS011;57073;45.650;9.612;2023-07-20T16:22:12;16.20;;;7.10;;
69795;SDS011;57073;45.650;9.612;2023-07-20T16:27:12;11.07;;;7.13;;
69795;SDS011;57073;45.650;9.612;2023-07-20T16:32:13;12.80;;;8.23;;
69795;SDS011;57073;45.650;9.612;2023-07-20T16:37:13;9.67;;;7.63;;
69795;SDS011;57073;45.650;9.612;2023-07-20T16:42:14;10.90;;;6.67;;
69795;SDS011;57073;45.650;9.612;2023-07-20T16:47:14;17.67;;;7.23;;
69795;SDS011;57073;45.650;9.612;2023-07-20T16:52:15;10.03;;;6.53;;
69795;SDS011;57073;45.650;9.612;2023-07-20T16:57:17;13.77;;;7.18;;
69795;SDS011;57073;45.650;9.612;2023-07-20T17:02:18;15.87;;;7.40;;
69795;SDS011;57073;45.650;9.612;2023-07-20T17:07:19;14.57;;;7.80;;
69795;SDS011;57073;45.650;9.612;2023-07-20T17:12:19;11.83;;;7.63;;
69795;SDS011;57073;45.650;9.612;2023-07-20T17:17:20;11.27;;;6.93;;
69795;SDS011;57073;45.650;9.612;2023-07-20T17:22:20;12.98;;;8.07;;
69795;SDS011;57073;45.650;9.612;2023-07-20T17:27:21;16.97;;;8.10;;
69795;SDS011;57073;45.650;9.612;2023-07-20T17:32:21;14.97;;;7.67;;
69795;SDS011;57073;45.650;9.612;2023-07-20T17:37:22;18.30;;;7.27;;
69795;SDS011;57073;45.650;9.612;2023-07-20T17:42:22;12.57;;;7.30;;
69795;SDS011;57073;45.650;9.612;2023-07-20T17:47:22;11.53;;;7.13;;
69795;SDS011;57073;45.650;9.612;2023-07-20T17:52:23;12.57;;;6.80;;
69795;SDS011;57073;45.650;9.612;2023-07-20T17:57:24;12.77;;;7.50;;
69795;SDS011;57073;45.650;9.612;2023-07-20T18:02:24;13.63;;;7.30;;
69795;SDS011;57073;45.650;9.612;2023-07-20T18:07:26;14.32;;;7.38;;
69795;SDS011;57073;45.650;9.612;2023-07-20T18:12:27;13.83;;;6.87;;
69795;SDS011;57073;45.650;9.612;2023-07-20T18:17:27;13.73;;;7.27;;
69795;SDS011;57073;45.650;9.612;2023-07-20T18:22:27;12.77;;;7.40;;
69795;SDS011;57073;45.650;9.612;2023-07-20T18:27:28;11.30;;;6.87;;
69795;SDS011;57073;45.650;9.612;2023-07-20T18:32:28;10.10;;;6.87;;
69795;SDS011;57073;45.650;9.612;2023-07-20T18:37:29;11.93;;;7.03;;
69795;SDS011;57073;45.650;9.612;2023-07-20T18:42:29;12.77;;;7.50;;
69795;SDS011;57073;45.650;9.612;2023-07-20T18:47:29;12.30;;;7.03;;
69795;SDS011;57073;45.650;9.612;2023-07-20T18:52:31;14.38;;;8.02;;
69795;SDS011;57073;45.650;9.612;2023-07-20T18:57:31;11.70;;;7.87;;
69795;SDS011;57073;45.650;9.612;2023-07-20T19:02:32;10.75;;;7.72;;
69795;SDS011;57073;45.650;9.612;2023-07-20T19:07:33;14.00;;;8.33;;
69795;SDS011;57073;45.650;9.612;2023-07-20T19:12:33;13.57;;;7.80;;
69795;SDS011;57073;45.650;9.612;2023-07-20T19:17:33;12.20;;;7.43;;
69795;SDS011;57073;45.650;9.612;2023-07-20T19:22:34;11.00;;;7.67;;
69795;SDS011;57073;45.650;9.612;2023-07-20T19:27:35;14.38;;;7.90;;
69795;SDS011;57073;45.650;9.612;2023-07-20T19:32:35;10.97;;;6.80;;
69795;SDS011;57073;45.650;9.612;2023-07-20T19:37:36;10.30;;;6.67;;
69795;SDS011;57073;45.650;9.612;2023-07-20T19:42:36;14.87;;;6.67;;
69795;SDS011;57073;45.650;9.612;2023-07-20T19:47:37;12.40;;;7.25;;
69795;SDS011;57073;45.650;9.612;2023-07-20T19:52:37;10.73;;;7.60;;
69795;SDS011;57073;45.650;9.612;2023-07-20T19:57:43;11.67;;;6.73;;
69795;SDS011;57073;45.650;9.612;2023-07-20T20:02:43;15.63;;;7.30;;
69795;SDS011;57073;45.650;9.612;2023-07-20T20:13:26;11.40;;;7.03;;
69795;SDS011;57073;45.650;9.612;2023-07-20T20:18:34;11.68;;;6.20;;
69795;SDS011;57073;45.650;9.612;2023-07-20T20:23:43;12.77;;;6.53;;
69795;SDS011;57073;45.650;9.612;2023-07-20T20:28:44;13.43;;;6.68;;
69795;SDS011;57073;45.650;9.612;2023-07-20T20:33:45;11.02;;;6.45;;
69795;SDS011;57073;45.650;9.612;2023-07-20T20:38:49;9.97;;;6.20;;
69795;SDS011;57073;45.650;9.612;2023-07-20T20:43:50;14.15;;;7.18;;
69795;SDS011;57073;45.650;9.612;2023-07-20T20:48:50;14.97;;;6.60;;
69795;SDS011;57073;45.650;9.612;2023-07-20T20:53:51;13.10;;;7.50;;
69795;SDS011;57073;45.650;9.612;2023-07-20T20:58:51;13.23;;;7.38;;
69795;SDS011;57073;45.650;9.612;2023-07-20T21:03:53;10.60;;;6.20;;
69795;SDS011;57073;45.650;9.612;2023-07-20T21:08:54;15.80;;;7.53;;
69795;SDS011;57073;45.650;9.612;2023-07-20T21:13:55;12.43;;;7.00;;
69795;SDS011;57073;45.650;9.612;2023-07-20T21:18:59;12.05;;;6.72;;
69795;SDS011;57073;45.650;9.612;2023-07-20T21:23:59;12.27;;;6.53;;
69795;SDS011;57073;45.650;9.612;2023-07-20T21:29:00;10.90;;;7.03;;
69795;SDS011;57073;45.650;9.612;2023-07-20T21:34:00;15.87;;;7.47;;
69795;SDS011;57073;45.650;9.612;2023-07-20T21:39:01;19.10;;;8.37;;
69795;SDS011;57073;45.650;9.612;2023-07-20T21:44:01;11.67;;;6.47;;
69795;SDS011;57073;45.650;9.612;2023-07-20T21:49:02;10.20;;;6.00;;
69795;SDS011;57073;45.650;9.612;2023-07-20T21:54:03;11.15;;;6.40;;
69795;SDS011;57073;45.650;9.612;2023-07-20T21:59:05;13.00;;;7.03;;
69795;SDS011;57073;45.650;9.612;2023-07-20T22:04:05;12.23;;;6.93;;
69795;SDS011;57073;45.650;9.612;2023-07-20T22:09:08;9.00;;;6.43;;
69795;SDS011;57073;45.650;9.612;2023-07-20T22:14:09;11.53;;;7.53;;
69795;SDS011;57073;45.650;9.612;2023-07-20T22:19:09;10.93;;;7.20;;
69795;SDS011;57073;45.650;9.612;2023-07-20T22:24:10;11.65;;;7.07;;
69795;SDS011;57073;45.650;9.612;2023-07-20T22:29:11;14.17;;;7.50;;
69795;SDS011;57073;45.650;9.612;2023-07-20T22:34:11;10.80;;;7.33;;
69795;SDS011;57073;45.650;9.612;2023-07-20T22:39:12;10.30;;;7.13;;
69795;SDS011;57073;45.650;9.612;2023-07-20T22:44:13;10.85;;;7.05;;
69795;SDS011;57073;45.650;9.612;2023-07-20T22:49:16;14.27;;;7.37;;
69795;SDS011;57073;45.650;9.612;2023-07-20T22:54:16;13.23;;;7.97;;
69795;SDS011;57073;45.650;9.612;2023-07-20T22:59:17;14.63;;;8.53;;
69795;SDS011;57073;45.650;9.612;2023-07-20T23:04:17;12.97;;;7.37;;
69795;SDS011;57073;45.650;9.612;2023-07-20T23:09:18;11.48;;;7.18;;
69795;SDS011;57073;45.650;9.612;2023-07-20T23:14:18;9.77;;;7.30;;
69795;SDS011;57073;45.650;9.612;2023-07-20T23:19:19;13.10;;;7.70;;
69795;SDS011;57073;45.650;9.612;2023-07-20T23:24:20;14.97;;;9.00;;
69795;SDS011;57073;45.650;9.612;2023-07-20T23:29:20;12.23;;;8.90;;
69795;SDS011;57073;45.650;9.612;2023-07-20T23:34:21;12.80;;;8.63;;
69795;SDS011;57073;45.650;9.612;2023-07-20T23:39:21;13.57;;;8.07;;
69795;SDS011;57073;45.650;9.612;2023-07-20T23:44:23;12.90;;;8.67;;
69795;SDS011;57073;45.650;9.612;2023-07-20T23:49:23;13.80;;;8.53;;
69795;SDS011;57073;45.650;9.612;2023-07-20T23:54:23;12.10;;;7.70;;
69795;SDS011;57073;45.650;9.612;2023-07-20T23:59:25;12.40;;;8.03;;
